sensor_id;sensor_type;location;lat;lon;timestamp;P1;durP1;ratioP1;P2;durP2;ratioP2
8964;SDS011;4517;49.020;12.066;2024-01-30T00:01:18;33.03;;;26.03;;
8964;SDS011;4517;49.020;12.066;2024-01-30T00:03:44;34.47;;;28.67;;
8964;SDS011;4517;49.020;12.066;2024-01-30T00:06:10;36.47;;;26.93;;
8964;SDS011;4517;49.020;12.066;2024-01-30T00:08:37;29.33;;;25.63;;
8964;SDS011;4517;49.020;12.066;2024-01-30T00:11:03;32.23;;;26.50;;
8964;SDS011;4517;49.020;12.066;2024-01-30T00:13:29;31.70;;;26.73;;
8964;SDS011;4517;49.020;12.066;2024-01-30T00:15:55;39.37;;;26.50;;
8964;SDS011;4517;49.020;12.066;2024-01-30T00:18:20;32.47;;;27.83;;
8964;SDS011;4517;49.020;12.066;2024-01-30T00:20:46;31.67;;;27.10;;
8964;SDS011;4517;49.020;12.066;2024-01-30T00:23:12;38.67;;;27.67;;
8964;SDS011;4517;49.020;12.066;2024-01-30T00:25:39;36.90;;;27.27;;
8964;SDS011;4517;49.020;12.066;2024-01-30T00:28:05;29.70;;;26.50;;
8964;SDS011;4517;49.020;12.066;2024-01-30T00:30:31;34.60;;;27.07;;
8964;SDS011;4517;49.020;12.066;2024-01-30T00:32:56;36.27;;;26.87;;
8964;SDS011;4517;49.020;12.066;2024-01-30T00:35:22;40.87;;;26.30;;
8964;SDS011;4517;49.020;12.066;2024-01-30T00:37:48;35.13;;;27.50;;
8964;SDS011;4517;49.020;12.066;2024-01-30T00:40:15;33.27;;;25.90;;
8964;SDS011;4517;49.020;12.066;2024-01-30T00:42:42;34.17;;;27.27;;
8964;SDS011;4517;49.020;12.066;2024-01-30T00:45:15;44.70;;;27.80;;
8964;SDS011;4517;49.020;12.066;2024-01-30T00:47:41;30.13;;;26.80;;
8964;SDS011;4517;49.020;12.066;2024-01-30T00:50:07;32.30;;;27.27;;
8964;SDS011;4517;49.020;12.066;2024-01-30T00:52:33;37.50;;;30.00;;
8964;SDS011;4517;49.020;12.066;2024-01-30T00:54:59;34.63;;;28.17;;
8964;SDS011;4517;49.020;12.066;2024-01-30T00:57:25;36.43;;;29.33;;
8964;SDS011;4517;49.020;12.066;2024-01-30T00:59:52;31.13;;;27.83;;
8964;SDS011;4517;49.020;12.066;2024-01-30T01:02:18;36.73;;;28.40;;
8964;SDS011;4517;49.020;12.066;2024-01-30T01:04:44;36.40;;;27.60;;
8964;SDS011;4517;49.020;12.066;2024-01-30T01:07:10;34.00;;;28.10;;
8964;SDS011;4517;49.020;12.066;2024-01-30T01:09:36;46.90;;;27.47;;
8964;SDS011;4517;49.020;12.066;2024-01-30T01:12:02;35.03;;;28.07;;
8964;SDS011;4517;49.020;12.066;2024-01-30T01:14:28;31.50;;;27.80;;
8964;SDS011;4517;49.020;12.066;2024-01-30T01:16:54;42.17;;;28.90;;
8964;SDS011;4517;49.020;12.066;2024-01-30T01:19:21;33.33;;;27.13;;
8964;SDS011;4517;49.020;12.066;2024-01-30T01:21:46;36.27;;;28.77;;
8964;SDS011;4517;49.020;12.066;2024-01-30T01:24:12;43.93;;;28.37;;
8964;SDS011;4517;49.020;12.066;2024-01-30T01:26:38;38.97;;;28.70;;
8964;SDS011;4517;49.020;12.066;2024-01-30T01:29:05;33.97;;;28.00;;
8964;SDS011;4517;49.020;12.066;2024-01-30T01:31:36;46.00;;;30.20;;
8964;SDS011;4517;49.020;12.066;2024-01-30T01:34:11;35.63;;;29.07;;
8964;SDS011;4517;49.020;12.066;2024-01-30T01:36:38;31.20;;;27.97;;
8964;SDS011;4517;49.020;12.066;2024-01-30T01:39:04;38.47;;;28.93;;
8964;SDS011;4517;49.020;12.066;2024-01-30T01:41:30;36.47;;;28.13;;
8964;SDS011;4517;49.020;12.066;2024-01-30T01:43:57;32.43;;;28.93;;
8964;SDS011;4517;49.020;12.066;2024-01-30T01:46:22;31.47;;;28.07;;
8964;SDS011;4517;49.020;12.066;2024-01-30T01:48:49;33.77;;;28.83;;
8964;SDS011;4517;49.020;12.066;2024-01-30T01:51:15;34.03;;;28.43;;
8964;SDS011;4517;49.020;12.066;2024-01-30T01:53:41;32.77;;;28.70;;
8964;SDS011;4517;49.020;12.066;2024-01-30T01:56:07;36.10;;;28.00;;
8964;SDS011;4517;49.020;12.066;2024-01-30T01:58:34;35.70;;;28.90;;
8964;SDS011;4517;49.020;12.066;2024-01-30T02:01:01;35.70;;;29.50;;
8964;SDS011;4517;49.020;12.066;2024-01-30T02:03:27;38.27;;;28.80;;
8964;SDS011;4517;49.020;12.066;2024-01-30T02:05:53;32.03;;;28.57;;
8964;SDS011;4517;49.020;12.066;2024-01-30T02:08:20;39.67;;;28.30;;
8964;SDS011;4517;49.020;12.066;2024-01-30T02:10:46;46.17;;;29.93;;
8964;SDS011;4517;49.020;12.066;2024-01-30T02:13:12;41.70;;;31.37;;
8964;SDS011;4517;49.020;12.066;2024-01-30T02:15:38;37.60;;;30.17;;
8964;SDS011;4517;49.020;12.066;2024-01-30T02:18:04;33.90;;;30.10;;
8964;SDS011;4517;49.020;12.066;2024-01-30T02:20:30;48.93;;;32.80;;
8964;SDS011;4517;49.020;12.066;2024-01-30T02:22:57;35.33;;;31.37;;
8964;SDS011;4517;49.020;12.066;2024-01-30T02:25:38;35.20;;;30.53;;
8964;SDS011;4517;49.020;12.066;2024-01-30T02:28:09;36.30;;;30.90;;
8964;SDS011;4517;49.020;12.066;2024-01-30T02:30:35;36.70;;;29.93;;
8964;SDS011;4517;49.020;12.066;2024-01-30T02:33:01;41.33;;;32.10;;
8964;SDS011;4517;49.020;12.066;2024-01-30T02:35:27;38.23;;;30.60;;
8964;SDS011;4517;49.020;12.066;2024-01-30T02:37:53;35.03;;;30.43;;
8964;SDS011;4517;49.020;12.066;2024-01-30T02:40:19;36.13;;;31.43;;
8964;SDS011;4517;49.020;12.066;2024-01-30T02:42:44;43.33;;;33.30;;
8964;SDS011;4517;49.020;12.066;2024-01-30T02:45:11;36.53;;;29.20;;
8964;SDS011;4517;49.020;12.066;2024-01-30T02:47:37;39.07;;;31.10;;
8964;SDS011;4517;49.020;12.066;2024-01-30T02:50:03;37.47;;;30.80;;
8964;SDS011;4517;49.020;12.066;2024-01-30T02:52:29;37.90;;;30.73;;
8964;SDS011;4517;49.020;12.066;2024-01-30T02:54:55;43.23;;;31.53;;
8964;SDS011;4517;49.020;12.066;2024-01-30T02:57:21;42.00;;;32.90;;
8964;SDS011;4517;49.020;12.066;2024-01-30T02:59:47;38.93;;;32.67;;
8964;SDS011;4517;49.020;12.066;2024-01-30T03:02:13;36.20;;;30.70;;
8964;SDS011;4517;49.020;12.066;2024-01-30T03:04:40;45.07;;;32.87;;
8964;SDS011;4517;49.020;12.066;2024-01-30T03:07:07;45.83;;;31.83;;
8964;SDS011;4517;49.020;12.066;2024-01-30T03:09:33;50.17;;;32.37;;
8964;SDS011;4517;49.020;12.066;2024-01-30T03:11:59;42.80;;;31.43;;
8964;SDS011;4517;49.020;12.066;2024-01-30T03:14:25;41.83;;;32.87;;
8964;SDS011;4517;49.020;12.066;2024-01-30T03:16:51;42.40;;;30.90;;
8964;SDS011;4517;49.020;12.066;2024-01-30T03:19:17;38.03;;;31.60;;
8964;SDS011;4517;49.020;12.066;2024-01-30T03:21:43;49.67;;;32.27;;
8964;SDS011;4517;49.020;12.066;2024-01-30T03:24:09;48.93;;;32.30;;
8964;SDS011;4517;49.020;12.066;2024-01-30T03:26:35;43.90;;;31.47;;
8964;SDS011;4517;49.020;12.066;2024-01-30T03:29:01;43.63;;;33.30;;
8964;SDS011;4517;49.020;12.066;2024-01-30T03:31:27;39.47;;;32.10;;
8964;SDS011;4517;49.020;12.066;2024-01-30T03:33:53;45.50;;;33.53;;
8964;SDS011;4517;49.020;12.066;2024-01-30T03:36:19;37.77;;;32.10;;
8964;SDS011;4517;49.020;12.066;2024-01-30T03:38:45;49.03;;;34.23;;
8964;SDS011;4517;49.020;12.066;2024-01-30T03:41:11;38.67;;;31.70;;
8964;SDS011;4517;49.020;12.066;2024-01-30T03:43:37;39.10;;;32.60;;
8964;SDS011;4517;49.020;12.066;2024-01-30T03:46:03;34.60;;;30.90;;
8964;SDS011;4517;49.020;12.066;2024-01-30T03:48:29;49.40;;;31.67;;
8964;SDS011;4517;49.020;12.066;2024-01-30T03:50:55;39.57;;;31.47;;
8964;SDS011;4517;49.020;12.066;2024-01-30T03:53:21;39.20;;;30.27;;
8964;SDS011;4517;49.020;12.066;2024-01-30T03:55:47;39.57;;;31.10;;
8964;SDS011;4517;49.020;12.066;2024-01-30T03:58:13;44.87;;;30.93;;
8964;SDS011;4517;49.020;12.066;2024-01-30T04:00:39;48.47;;;31.80;;
8964;SDS011;4517;49.020;12.066;2024-01-30T04:03:06;40.00;;;30.97;;
8964;SDS011;4517;49.020;12.066;2024-01-30T04:05:32;46.03;;;31.93;;
8964;SDS011;4517;49.020;12.066;2024-01-30T04:07:58;45.80;;;32.63;;
8964;SDS011;4517;49.020;12.066;2024-01-30T04:10:24;41.00;;;30.10;;
8964;SDS011;4517;49.020;12.066;2024-01-30T04:12:50;49.57;;;31.40;;
8964;SDS011;4517;49.020;12.066;2024-01-30T04:15:16;39.73;;;31.00;;
8964;SDS011;4517;49.020;12.066;2024-01-30T04:17:43;48.13;;;32.50;;
8964;SDS011;4517;49.020;12.066;2024-01-30T04:20:13;45.40;;;30.73;;
8964;SDS011;4517;49.020;12.066;2024-01-30T04:22:39;39.03;;;30.97;;
8964;SDS011;4517;49.020;12.066;2024-01-30T04:25:05;43.10;;;32.03;;
8964;SDS011;4517;49.020;12.066;2024-01-30T04:27:31;42.30;;;32.03;;
8964;SDS011;4517;49.020;12.066;2024-01-30T04:29:57;45.73;;;31.80;;
8964;SDS011;4517;49.020;12.066;2024-01-30T04:32:23;51.33;;;33.47;;
8964;SDS011;4517;49.020;12.066;2024-01-30T04:34:49;48.27;;;31.53;;
8964;SDS011;4517;49.020;12.066;2024-01-30T04:37:15;45.77;;;32.10;;
8964;SDS011;4517;49.020;12.066;2024-01-30T04:39:41;46.07;;;31.67;;
8964;SDS011;4517;49.020;12.066;2024-01-30T04:42:08;51.47;;;32.40;;
8964;SDS011;4517;49.020;12.066;2024-01-30T04:44:33;46.93;;;33.00;;
8964;SDS011;4517;49.020;12.066;2024-01-30T04:46:59;48.03;;;30.97;;
8964;SDS011;4517;49.020;12.066;2024-01-30T04:49:26;49.90;;;32.03;;
8964;SDS011;4517;49.020;12.066;2024-01-30T04:51:52;46.00;;;31.07;;
8964;SDS011;4517;49.020;12.066;2024-01-30T04:54:18;49.13;;;30.47;;
8964;SDS011;4517;49.020;12.066;2024-01-30T04:56:44;44.70;;;28.60;;
8964;SDS011;4517;49.020;12.066;2024-01-30T04:59:10;47.33;;;30.70;;
8964;SDS011;4517;49.020;12.066;2024-01-30T05:01:36;47.43;;;30.33;;
8964;SDS011;4517;49.020;12.066;2024-01-30T05:04:02;51.87;;;32.27;;
8964;SDS011;4517;49.020;12.066;2024-01-30T05:06:28;44.87;;;30.60;;
8964;SDS011;4517;49.020;12.066;2024-01-30T05:08:54;58.37;;;31.07;;
8964;SDS011;4517;49.020;12.066;2024-01-30T05:11:21;51.83;;;31.40;;
8964;SDS011;4517;49.020;12.066;2024-01-30T05:13:47;46.57;;;30.37;;
8964;SDS011;4517;49.020;12.066;2024-01-30T05:16:13;56.17;;;33.00;;
8964;SDS011;4517;49.020;12.066;2024-01-30T05:18:39;53.17;;;31.50;;
8964;SDS011;4517;49.020;12.066;2024-01-30T05:21:05;81.50;;;38.70;;
8964;SDS011;4517;49.020;12.066;2024-01-30T05:23:31;54.60;;;32.33;;
8964;SDS011;4517;49.020;12.066;2024-01-30T05:25:57;56.60;;;33.37;;
8964;SDS011;4517;49.020;12.066;2024-01-30T05:28:25;59.63;;;33.40;;
8964;SDS011;4517;49.020;12.066;2024-01-30T05:30:51;52.90;;;32.33;;
8964;SDS011;4517;49.020;12.066;2024-01-30T05:33:17;50.53;;;32.20;;
8964;SDS011;4517;49.020;12.066;2024-01-30T05:35:43;50.43;;;31.90;;
8964;SDS011;4517;49.020;12.066;2024-01-30T05:38:10;57.10;;;35.87;;
8964;SDS011;4517;49.020;12.066;2024-01-30T05:40:37;59.97;;;36.70;;
8964;SDS011;4517;49.020;12.066;2024-01-30T05:43:03;55.70;;;34.40;;
8964;SDS011;4517;49.020;12.066;2024-01-30T05:45:29;49.40;;;32.93;;
8964;SDS011;4517;49.020;12.066;2024-01-30T05:47:55;51.50;;;33.60;;
8964;SDS011;4517;49.020;12.066;2024-01-30T05:50:21;51.23;;;31.20;;
8964;SDS011;4517;49.020;12.066;2024-01-30T05:52:48;51.27;;;30.50;;
8964;SDS011;4517;49.020;12.066;2024-01-30T05:55:14;57.87;;;32.10;;
8964;SDS011;4517;49.020;12.066;2024-01-30T05:57:40;57.30;;;34.57;;
8964;SDS011;4517;49.020;12.066;2024-01-30T06:00:06;47.47;;;33.93;;
8964;SDS011;4517;49.020;12.066;2024-01-30T06:02:33;59.73;;;34.70;;
8964;SDS011;4517;49.020;12.066;2024-01-30T06:04:59;57.37;;;34.50;;
8964;SDS011;4517;49.020;12.066;2024-01-30T06:07:25;60.50;;;35.93;;
8964;SDS011;4517;49.020;12.066;2024-01-30T06:09:51;61.03;;;35.20;;
8964;SDS011;4517;49.020;12.066;2024-01-30T06:12:17;62.77;;;35.20;;
8964;SDS011;4517;49.020;12.066;2024-01-30T06:14:43;63.60;;;42.50;;
8964;SDS011;4517;49.020;12.066;2024-01-30T06:17:09;75.70;;;37.90;;
8964;SDS011;4517;49.020;12.066;2024-01-30T06:19:36;63.17;;;36.90;;
8964;SDS011;4517;49.020;12.066;2024-01-30T06:22:03;69.53;;;36.90;;
8964;SDS011;4517;49.020;12.066;2024-01-30T06:24:29;64.10;;;38.37;;
8964;SDS011;4517;49.020;12.066;2024-01-30T06:26:55;56.03;;;37.90;;
8964;SDS011;4517;49.020;12.066;2024-01-30T06:29:21;65.53;;;38.40;;
8964;SDS011;4517;49.020;12.066;2024-01-30T06:31:49;65.47;;;37.97;;
8964;SDS011;4517;49.020;12.066;2024-01-30T06:34:15;60.07;;;36.50;;
8964;SDS011;4517;49.020;12.066;2024-01-30T06:36:41;56.33;;;34.63;;
8964;SDS011;4517;49.020;12.066;2024-01-30T06:39:07;50.00;;;34.80;;
8964;SDS011;4517;49.020;12.066;2024-01-30T06:41:33;53.90;;;42.00;;
8964;SDS011;4517;49.020;12.066;2024-01-30T06:44:01;64.20;;;37.50;;
8964;SDS011;4517;49.020;12.066;2024-01-30T06:46:28;56.07;;;37.30;;
8964;SDS011;4517;49.020;12.066;2024-01-30T06:48:53;69.80;;;39.47;;
8964;SDS011;4517;49.020;12.066;2024-01-30T06:51:19;52.40;;;36.90;;
8964;SDS011;4517;49.020;12.066;2024-01-30T06:53:45;63.20;;;37.77;;
8964;SDS011;4517;49.020;12.066;2024-01-30T06:56:11;70.00;;;39.87;;
8964;SDS011;4517;49.020;12.066;2024-01-30T06:58:37;61.70;;;39.17;;
8964;SDS011;4517;49.020;12.066;2024-01-30T07:01:03;66.20;;;36.50;;
8964;SDS011;4517;49.020;12.066;2024-01-30T07:03:29;76.80;;;41.73;;
8964;SDS011;4517;49.020;12.066;2024-01-30T07:05:55;72.13;;;39.40;;
8964;SDS011;4517;49.020;12.066;2024-01-30T07:08:21;72.63;;;40.13;;
8964;SDS011;4517;49.020;12.066;2024-01-30T07:10:47;67.23;;;38.90;;
8964;SDS011;4517;49.020;12.066;2024-01-30T07:13:13;69.93;;;41.67;;
8964;SDS011;4517;49.020;12.066;2024-01-30T07:15:41;85.30;;;41.37;;
8964;SDS011;4517;49.020;12.066;2024-01-30T07:18:07;85.87;;;42.23;;
8964;SDS011;4517;49.020;12.066;2024-01-30T07:20:34;82.93;;;42.10;;
8964;SDS011;4517;49.020;12.066;2024-01-30T07:23:00;80.37;;;41.13;;
8964;SDS011;4517;49.020;12.066;2024-01-30T07:25:27;66.73;;;38.30;;
8964;SDS011;4517;49.020;12.066;2024-01-30T07:27:54;87.23;;;40.30;;
8964;SDS011;4517;49.020;12.066;2024-01-30T07:30:20;63.40;;;40.20;;
8964;SDS011;4517;49.020;12.066;2024-01-30T07:32:46;89.13;;;48.60;;
8964;SDS011;4517;49.020;12.066;2024-01-30T07:35:13;79.37;;;43.90;;
8964;SDS011;4517;49.020;12.066;2024-01-30T07:37:39;74.70;;;42.17;;
8964;SDS011;4517;49.020;12.066;2024-01-30T07:40:05;72.13;;;42.37;;
8964;SDS011;4517;49.020;12.066;2024-01-30T07:42:31;64.63;;;40.53;;
8964;SDS011;4517;49.020;12.066;2024-01-30T07:44:58;71.70;;;41.67;;
8964;SDS011;4517;49.020;12.066;2024-01-30T07:47:23;71.20;;;40.27;;
8964;SDS011;4517;49.020;12.066;2024-01-30T07:49:49;74.70;;;42.73;;
8964;SDS011;4517;49.020;12.066;2024-01-30T07:52:16;64.77;;;42.67;;
8964;SDS011;4517;49.020;12.066;2024-01-30T07:54:48;76.40;;;46.47;;
8964;SDS011;4517;49.020;12.066;2024-01-30T07:57:15;73.53;;;45.43;;
8964;SDS011;4517;49.020;12.066;2024-01-30T07:59:42;83.10;;;45.47;;
8964;SDS011;4517;49.020;12.066;2024-01-30T08:02:09;74.17;;;42.10;;
8964;SDS011;4517;49.020;12.066;2024-01-30T08:04:35;80.47;;;46.10;;
8964;SDS011;4517;49.020;12.066;2024-01-30T08:07:01;82.03;;;46.90;;
8964;SDS011;4517;49.020;12.066;2024-01-30T08:09:27;86.17;;;47.73;;
8964;SDS011;4517;49.020;12.066;2024-01-30T08:11:53;71.67;;;45.80;;
8964;SDS011;4517;49.020;12.066;2024-01-30T08:14:19;70.27;;;45.73;;
8964;SDS011;4517;49.020;12.066;2024-01-30T08:16:45;72.40;;;47.37;;
8964;SDS011;4517;49.020;12.066;2024-01-30T08:19:11;77.90;;;46.37;;
8964;SDS011;4517;49.020;12.066;2024-01-30T08:21:37;73.43;;;48.60;;
8964;SDS011;4517;49.020;12.066;2024-01-30T08:24:03;77.20;;;46.67;;
8964;SDS011;4517;49.020;12.066;2024-01-30T08:26:29;79.73;;;45.37;;
8964;SDS011;4517;49.020;12.066;2024-01-30T08:28:55;71.37;;;46.30;;
8964;SDS011;4517;49.020;12.066;2024-01-30T08:31:21;73.80;;;46.07;;
8964;SDS011;4517;49.020;12.066;2024-01-30T08:33:47;78.93;;;53.40;;
8964;SDS011;4517;49.020;12.066;2024-01-30T08:36:14;70.50;;;43.57;;
8964;SDS011;4517;49.020;12.066;2024-01-30T08:38:40;72.80;;;45.03;;
8964;SDS011;4517;49.020;12.066;2024-01-30T08:41:06;71.73;;;45.07;;
8964;SDS011;4517;49.020;12.066;2024-01-30T08:43:32;74.47;;;47.00;;
8964;SDS011;4517;49.020;12.066;2024-01-30T08:45:59;65.97;;;44.13;;
8964;SDS011;4517;49.020;12.066;2024-01-30T08:48:25;72.50;;;44.30;;
8964;SDS011;4517;49.020;12.066;2024-01-30T08:50:51;67.13;;;45.83;;
8964;SDS011;4517;49.020;12.066;2024-01-30T08:53:17;71.00;;;44.47;;
8964;SDS011;4517;49.020;12.066;2024-01-30T08:55:43;66.17;;;45.50;;
8964;SDS011;4517;49.020;12.066;2024-01-30T08:58:09;65.70;;;43.97;;
8964;SDS011;4517;49.020;12.066;2024-01-30T09:00:36;62.93;;;44.27;;
8964;SDS011;4517;49.020;12.066;2024-01-30T09:03:02;64.83;;;42.57;;
8964;SDS011;4517;49.020;12.066;2024-01-30T09:05:28;55.63;;;41.67;;
8964;SDS011;4517;49.020;12.066;2024-01-30T09:07:54;61.83;;;43.00;;
8964;SDS011;4517;49.020;12.066;2024-01-30T09:10:20;62.83;;;42.13;;
8964;SDS011;4517;49.020;12.066;2024-01-30T09:12:47;66.43;;;46.33;;
8964;SDS011;4517;49.020;12.066;2024-01-30T09:15:13;57.20;;;43.30;;
8964;SDS011;4517;49.020;12.066;2024-01-30T09:17:39;56.37;;;45.90;;
8964;SDS011;4517;49.020;12.066;2024-01-30T09:20:05;66.43;;;45.43;;
8964;SDS011;4517;49.020;12.066;2024-01-30T09:22:31;59.30;;;45.33;;
8964;SDS011;4517;49.020;12.066;2024-01-30T09:24:57;72.83;;;61.87;;
8964;SDS011;4517;49.020;12.066;2024-01-30T09:27:23;68.23;;;46.60;;
8964;SDS011;4517;49.020;12.066;2024-01-30T09:29:49;61.47;;;44.33;;
8964;SDS011;4517;49.020;12.066;2024-01-30T09:32:15;56.00;;;44.60;;
8964;SDS011;4517;49.020;12.066;2024-01-30T09:34:42;70.00;;;45.50;;
8964;SDS011;4517;49.020;12.066;2024-01-30T09:37:08;56.07;;;44.90;;
8964;SDS011;4517;49.020;12.066;2024-01-30T09:39:34;63.73;;;44.47;;
8964;SDS011;4517;49.020;12.066;2024-01-30T09:42:02;60.43;;;43.57;;
8964;SDS011;4517;49.020;12.066;2024-01-30T09:44:31;59.30;;;45.80;;
8964;SDS011;4517;49.020;12.066;2024-01-30T09:46:59;54.27;;;43.23;;
8964;SDS011;4517;49.020;12.066;2024-01-30T09:49:29;58.77;;;44.53;;
8964;SDS011;4517;49.020;12.066;2024-01-30T09:51:55;51.00;;;41.77;;
8964;SDS011;4517;49.020;12.066;2024-01-30T09:54:21;57.17;;;41.63;;
8964;SDS011;4517;49.020;12.066;2024-01-30T09:56:48;53.03;;;42.03;;
8964;SDS011;4517;49.020;12.066;2024-01-30T09:59:13;58.73;;;43.70;;
8964;SDS011;4517;49.020;12.066;2024-01-30T10:01:40;55.80;;;40.87;;
8964;SDS011;4517;49.020;12.066;2024-01-30T10:04:07;57.93;;;42.10;;
8964;SDS011;4517;49.020;12.066;2024-01-30T10:06:33;53.30;;;40.13;;
8964;SDS011;4517;49.020;12.066;2024-01-30T10:08:59;59.70;;;43.60;;
8964;SDS011;4517;49.020;12.066;2024-01-30T10:11:25;54.17;;;42.67;;
8964;SDS011;4517;49.020;12.066;2024-01-30T10:13:51;53.23;;;40.40;;
8964;SDS011;4517;49.020;12.066;2024-01-30T10:16:17;56.30;;;46.20;;
8964;SDS011;4517;49.020;12.066;2024-01-30T10:18:43;60.10;;;43.03;;
8964;SDS011;4517;49.020;12.066;2024-01-30T10:21:09;57.93;;;40.70;;
8964;SDS011;4517;49.020;12.066;2024-01-30T10:23:35;57.67;;;39.60;;
8964;SDS011;4517;49.020;12.066;2024-01-30T10:26:06;53.70;;;40.30;;
8964;SDS011;4517;49.020;12.066;2024-01-30T10:28:33;54.40;;;40.80;;
8964;SDS011;4517;49.020;12.066;2024-01-30T10:31:02;51.17;;;38.60;;
8964;SDS011;4517;49.020;12.066;2024-01-30T10:33:29;53.73;;;40.40;;
8964;SDS011;4517;49.020;12.066;2024-01-30T10:36:02;51.27;;;38.43;;
8964;SDS011;4517;49.020;12.066;2024-01-30T10:38:29;54.73;;;40.57;;
8964;SDS011;4517;49.020;12.066;2024-01-30T10:40:58;49.23;;;40.63;;
8964;SDS011;4517;49.020;12.066;2024-01-30T10:43:31;55.80;;;38.77;;
8964;SDS011;4517;49.020;12.066;2024-01-30T10:46:00;47.37;;;38.87;;
8964;SDS011;4517;49.020;12.066;2024-01-30T10:48:30;54.17;;;40.33;;
8964;SDS011;4517;49.020;12.066;2024-01-30T10:50:58;54.93;;;40.03;;
8964;SDS011;4517;49.020;12.066;2024-01-30T10:53:25;65.27;;;58.13;;
8964;SDS011;4517;49.020;12.066;2024-01-30T10:55:52;52.40;;;40.00;;
8964;SDS011;4517;49.020;12.066;2024-01-30T10:58:20;54.13;;;39.37;;
8964;SDS011;4517;49.020;12.066;2024-01-30T11:00:46;46.40;;;38.30;;
8964;SDS011;4517;49.020;12.066;2024-01-30T11:03:12;48.07;;;38.67;;
8964;SDS011;4517;49.020;12.066;2024-01-30T11:05:40;53.77;;;40.10;;
8964;SDS011;4517;49.020;12.066;2024-01-30T11:08:12;50.70;;;39.60;;
8964;SDS011;4517;49.020;12.066;2024-01-30T11:10:47;55.73;;;42.47;;
8964;SDS011;4517;49.020;12.066;2024-01-30T11:13:14;50.43;;;42.57;;
8964;SDS011;4517;49.020;12.066;2024-01-30T11:15:40;47.23;;;39.13;;
8964;SDS011;4517;49.020;12.066;2024-01-30T11:18:06;49.13;;;40.37;;
8964;SDS011;4517;49.020;12.066;2024-01-30T11:20:32;57.67;;;39.53;;
8964;SDS011;4517;49.020;12.066;2024-01-30T11:23:00;68.10;;;41.10;;
8964;SDS011;4517;49.020;12.066;2024-01-30T11:25:33;47.40;;;39.77;;
8964;SDS011;4517;49.020;12.066;2024-01-30T11:27:59;52.73;;;38.27;;
8964;SDS011;4517;49.020;12.066;2024-01-30T11:30:25;45.50;;;37.83;;
8964;SDS011;4517;49.020;12.066;2024-01-30T11:32:58;44.00;;;37.27;;
8964;SDS011;4517;49.020;12.066;2024-01-30T11:35:24;44.97;;;37.83;;
8964;SDS011;4517;49.020;12.066;2024-01-30T11:37:51;52.23;;;39.97;;
8964;SDS011;4517;49.020;12.066;2024-01-30T11:40:17;47.47;;;38.97;;
8964;SDS011;4517;49.020;12.066;2024-01-30T11:42:43;57.23;;;38.30;;
8964;SDS011;4517;49.020;12.066;2024-01-30T11:45:09;51.10;;;40.53;;
8964;SDS011;4517;49.020;12.066;2024-01-30T11:47:36;55.80;;;40.47;;
8964;SDS011;4517;49.020;12.066;2024-01-30T11:50:04;54.23;;;40.23;;
8964;SDS011;4517;49.020;12.066;2024-01-30T11:52:32;50.10;;;39.13;;
8964;SDS011;4517;49.020;12.066;2024-01-30T11:54:58;45.80;;;38.00;;
8964;SDS011;4517;49.020;12.066;2024-01-30T11:57:26;46.40;;;38.03;;
8964;SDS011;4517;49.020;12.066;2024-01-30T11:59:52;44.43;;;36.20;;
8964;SDS011;4517;49.020;12.066;2024-01-30T12:02:18;47.13;;;36.40;;
8964;SDS011;4517;49.020;12.066;2024-01-30T12:04:44;46.03;;;37.87;;
8964;SDS011;4517;49.020;12.066;2024-01-30T12:07:10;49.77;;;38.67;;
8964;SDS011;4517;49.020;12.066;2024-01-30T12:09:37;49.07;;;37.00;;
8964;SDS011;4517;49.020;12.066;2024-01-30T12:12:03;48.63;;;37.17;;
8964;SDS011;4517;49.020;12.066;2024-01-30T12:14:30;46.63;;;35.90;;
8964;SDS011;4517;49.020;12.066;2024-01-30T12:16:57;46.20;;;36.40;;
8964;SDS011;4517;49.020;12.066;2024-01-30T12:19:23;40.23;;;35.77;;
8964;SDS011;4517;49.020;12.066;2024-01-30T12:21:59;45.40;;;34.83;;
8964;SDS011;4517;49.020;12.066;2024-01-30T12:24:25;40.23;;;34.83;;
8964;SDS011;4517;49.020;12.066;2024-01-30T12:26:51;42.87;;;35.23;;
8964;SDS011;4517;49.020;12.066;2024-01-30T12:29:18;41.20;;;35.80;;
8964;SDS011;4517;49.020;12.066;2024-01-30T12:31:47;45.20;;;34.00;;
8964;SDS011;4517;49.020;12.066;2024-01-30T12:34:16;42.43;;;35.27;;
8964;SDS011;4517;49.020;12.066;2024-01-30T12:36:43;42.00;;;34.63;;
8964;SDS011;4517;49.020;12.066;2024-01-30T12:39:11;40.23;;;34.43;;
8964;SDS011;4517;49.020;12.066;2024-01-30T12:41:39;45.03;;;34.10;;
8964;SDS011;4517;49.020;12.066;2024-01-30T12:44:05;37.60;;;33.60;;
8964;SDS011;4517;49.020;12.066;2024-01-30T12:46:31;41.37;;;34.43;;
8964;SDS011;4517;49.020;12.066;2024-01-30T12:48:57;41.30;;;34.97;;
8964;SDS011;4517;49.020;12.066;2024-01-30T12:51:23;38.10;;;34.10;;
8964;SDS011;4517;49.020;12.066;2024-01-30T12:53:49;38.00;;;33.93;;
8964;SDS011;4517;49.020;12.066;2024-01-30T12:56:15;38.23;;;33.37;;
8964;SDS011;4517;49.020;12.066;2024-01-30T12:58:41;39.77;;;33.13;;
8964;SDS011;4517;49.020;12.066;2024-01-30T13:01:08;38.23;;;33.57;;
8964;SDS011;4517;49.020;12.066;2024-01-30T13:03:34;36.90;;;32.73;;
8964;SDS011;4517;49.020;12.066;2024-01-30T13:06:00;37.77;;;33.33;;
8964;SDS011;4517;49.020;12.066;2024-01-30T13:08:26;39.33;;;35.10;;
8964;SDS011;4517;49.020;12.066;2024-01-30T13:10:52;50.83;;;45.43;;
8964;SDS011;4517;49.020;12.066;2024-01-30T13:13:17;39.13;;;34.33;;
8964;SDS011;4517;49.020;12.066;2024-01-30T13:15:43;45.73;;;35.00;;
8964;SDS011;4517;49.020;12.066;2024-01-30T13:18:09;38.23;;;33.77;;
8964;SDS011;4517;49.020;12.066;2024-01-30T13:20:35;42.53;;;33.30;;
8964;SDS011;4517;49.020;12.066;2024-01-30T13:23:01;45.53;;;34.10;;
8964;SDS011;4517;49.020;12.066;2024-01-30T13:25:27;42.40;;;32.83;;
8964;SDS011;4517;49.020;12.066;2024-01-30T13:27:53;44.30;;;33.30;;
8964;SDS011;4517;49.020;12.066;2024-01-30T13:30:19;41.83;;;32.63;;
8964;SDS011;4517;49.020;12.066;2024-01-30T13:32:45;37.73;;;31.83;;
8964;SDS011;4517;49.020;12.066;2024-01-30T13:35:11;41.33;;;32.37;;
8964;SDS011;4517;49.020;12.066;2024-01-30T13:37:37;38.23;;;33.10;;
8964;SDS011;4517;49.020;12.066;2024-01-30T13:40:04;37.97;;;32.63;;
8964;SDS011;4517;49.020;12.066;2024-01-30T13:42:37;37.87;;;33.20;;
8964;SDS011;4517;49.020;12.066;2024-01-30T13:45:04;39.33;;;33.37;;
8964;SDS011;4517;49.020;12.066;2024-01-30T13:47:30;37.80;;;32.17;;
8964;SDS011;4517;49.020;12.066;2024-01-30T13:49:56;40.10;;;35.00;;
8964;SDS011;4517;49.020;12.066;2024-01-30T13:52:22;40.90;;;31.60;;
8964;SDS011;4517;49.020;12.066;2024-01-30T13:54:48;38.23;;;32.10;;
8964;SDS011;4517;49.020;12.066;2024-01-30T13:57:14;37.27;;;32.90;;
8964;SDS011;4517;49.020;12.066;2024-01-30T13:59:40;36.60;;;31.60;;
8964;SDS011;4517;49.020;12.066;2024-01-30T14:02:06;46.67;;;32.27;;
8964;SDS011;4517;49.020;12.066;2024-01-30T14:04:33;34.43;;;30.77;;
8964;SDS011;4517;49.020;12.066;2024-01-30T14:06:59;35.60;;;31.13;;
8964;SDS011;4517;49.020;12.066;2024-01-30T14:09:25;41.10;;;31.37;;
8964;SDS011;4517;49.020;12.066;2024-01-30T14:11:51;34.63;;;30.93;;
8964;SDS011;4517;49.020;12.066;2024-01-30T14:14:17;40.53;;;30.20;;
8964;SDS011;4517;49.020;12.066;2024-01-30T14:16:43;34.50;;;29.13;;
8964;SDS011;4517;49.020;12.066;2024-01-30T14:19:09;41.87;;;29.50;;
8964;SDS011;4517;49.020;12.066;2024-01-30T14:21:35;40.63;;;30.17;;
8964;SDS011;4517;49.020;12.066;2024-01-30T14:24:02;41.60;;;30.30;;
8964;SDS011;4517;49.020;12.066;2024-01-30T14:26:28;44.47;;;31.57;;
8964;SDS011;4517;49.020;12.066;2024-01-30T14:28:54;45.33;;;30.97;;